METAR Data
IDs: Format: Raw Decoded Include TAF

Data at: 0225 UTC 25 Feb 2021

EBAW 250220Z AUTO 23003KT CAVOK 09/06 Q1025